createdAt,value
2018-09-14T04:00:57.905Z,43.07
2018-09-14T04:03:26.061Z,50.23
2018-09-14T04:05:54.240Z,54.87
2018-09-14T04:08:22.412Z,47.67
2018-09-14T04:10:50.681Z,44.57
2018-09-14T04:13:18.894Z,47.43
2018-09-14T04:15:47.110Z,50.80
2018-09-14T04:18:15.441Z,57.53
2018-09-14T04:20:43.687Z,49.13
2018-09-14T04:23:11.975Z,43.73
2018-09-14T04:25:40.181Z,42.33
2018-09-14T04:28:08.447Z,38.60
2018-09-14T04:30:36.689Z,38.20
2018-09-14T04:33:04.941Z,41.17
2018-09-14T04:35:33.152Z,37.07
2018-09-14T04:38:01.428Z,40.63
2018-09-14T04:40:29.676Z,38.37
2018-09-14T04:42:58.681Z,40.10
2018-09-14T04:45:26.940Z,47.90
2018-09-14T04:47:55.158Z,44.47
2018-09-14T04:50:23.839Z,40.47
2018-09-14T04:52:52.081Z,42.23
2018-09-14T04:55:20.277Z,46.90
2018-09-14T04:57:48.485Z,38.53
2018-09-14T05:00:16.705Z,42.87
2018-09-14T05:02:44.942Z,42.93
2018-09-14T05:05:13.158Z,40.97
2018-09-14T05:07:41.441Z,38.80
2018-09-14T05:10:09.668Z,43.73
2018-09-14T05:12:37.889Z,39.33
2018-09-14T05:15:06.212Z,40.83
2018-09-14T05:17:34.397Z,42.93
2018-09-14T05:20:02.577Z,42.07
2018-09-14T05:22:30.791Z,42.60
2018-09-14T05:24:58.969Z,42.40
2018-09-14T05:27:34.006Z,43.90
2018-09-14T05:30:02.190Z,50.50
2018-09-14T05:32:30.460Z,40.10
2018-09-14T05:34:58.706Z,42.53
2018-09-14T05:37:26.930Z,51.00
2018-09-14T05:39:55.136Z,49.50
2018-09-14T05:42:23.382Z,48.00
2018-09-14T05:44:51.635Z,43.83
2018-09-14T05:47:19.869Z,46.20
2018-09-14T05:49:48.132Z,49.00
2018-09-14T05:52:16.326Z,41.43
2018-09-14T05:54:44.639Z,40.37
2018-09-14T05:57:12.866Z,38.83
2018-09-14T05:59:41.083Z,35.27
2018-09-14T06:02:09.317Z,39.43
2018-09-14T06:04:37.522Z,32.30
2018-09-14T06:07:05.792Z,39.43
2018-09-14T06:09:33.982Z,38.80
2018-09-14T06:12:02.193Z,37.80
2018-09-14T06:14:30.404Z,53.90
2018-09-14T06:16:58.650Z,45.63
2018-09-14T06:19:26.897Z,46.03
2018-09-14T06:21:55.161Z,42.33
2018-09-14T06:24:23.406Z,47.57
2018-09-14T06:26:51.620Z,42.67
2018-09-14T06:29:19.853Z,41.83
2018-09-14T06:31:48.078Z,44.33
2018-09-14T06:34:16.654Z,42.17
2018-09-14T06:36:44.836Z,35.07
2018-09-14T06:39:13.303Z,34.70
2018-09-14T06:41:48.070Z,32.70
2018-09-14T06:44:16.285Z,32.33
2018-09-14T06:46:44.514Z,33.93
2018-09-14T06:49:12.762Z,33.27
2018-09-14T06:51:40.998Z,30.77
2018-09-14T06:54:09.743Z,24.50
2018-09-14T06:56:37.971Z,28.83
2018-09-14T06:59:06.282Z,32.63
2018-09-14T07:01:34.543Z,33.23
2018-09-14T07:04:02.731Z,36.00
2018-09-14T07:06:30.982Z,39.60
2018-09-14T07:08:59.198Z,33.83
2018-09-14T07:11:27.425Z,35.50
2018-09-14T07:13:55.779Z,35.53
2018-09-14T07:16:24.019Z,32.57
2018-09-14T07:18:52.251Z,35.10
2018-09-14T07:21:20.465Z,29.50
2018-09-14T07:23:48.635Z,28.70
2018-09-14T07:26:16.853Z,32.80
2018-09-14T07:28:45.100Z,38.43
2018-09-14T07:31:13.364Z,33.57
2018-09-14T07:33:41.537Z,29.30
2018-09-14T07:36:09.847Z,40.77
2018-09-14T07:38:38.093Z,33.37
2018-09-14T07:41:06.818Z,37.57
2018-09-14T07:43:35.036Z,34.07
2018-09-14T07:46:03.211Z,28.57
2018-09-14T07:48:32.529Z,35.00
2018-09-14T07:51:00.706Z,30.33
2018-09-14T07:53:28.917Z,28.13
2018-09-14T07:55:57.185Z,29.07
2018-09-14T07:58:25.368Z,31.93
2018-09-14T08:00:53.560Z,32.90
2018-09-14T08:03:21.801Z,38.07
2018-09-14T08:05:50.083Z,30.43
2018-09-14T08:08:18.442Z,28.53
2018-09-14T08:10:46.660Z,28.33
2018-09-14T08:13:14.964Z,27.23
2018-09-14T08:15:43.271Z,26.80
2018-09-14T08:18:11.505Z,25.87
2018-09-14T08:20:40.449Z,37.00
2018-09-14T08:23:08.675Z,27.90
2018-09-14T08:25:36.976Z,33.67
2018-09-14T08:28:05.155Z,31.13
2018-09-14T08:30:33.423Z,31.87
2018-09-14T08:33:01.617Z,33.10
2018-09-14T08:35:30.068Z,30.20
2018-09-14T08:37:58.274Z,29.97
2018-09-14T08:40:26.488Z,30.63
2018-09-14T08:42:54.725Z,29.27
2018-09-14T08:45:23.009Z,30.90
2018-09-14T08:47:51.280Z,28.23
2018-09-14T08:50:19.496Z,29.33
2018-09-14T08:52:47.742Z,31.10
2018-09-14T08:55:16.040Z,33.57
2018-09-14T08:57:44.231Z,28.33
2018-09-14T09:00:12.468Z,32.33
2018-09-14T09:02:40.636Z,29.60
2018-09-14T09:05:08.854Z,31.77
2018-09-14T09:07:37.082Z,31.40
2018-09-14T09:10:05.345Z,26.83
2018-09-14T09:12:33.547Z,30.77
2018-09-14T09:15:01.753Z,28.10
2018-09-14T09:17:30.008Z,33.87
2018-09-14T09:19:58.269Z,30.10
2018-09-14T09:22:26.485Z,33.20
2018-09-14T09:24:54.718Z,33.00
2018-09-14T09:27:22.940Z,32.33
2018-09-14T09:29:51.253Z,26.27
2018-09-14T09:32:19.443Z,27.03
2018-09-14T09:34:47.650Z,33.47
2018-09-14T09:37:15.858Z,25.97
2018-09-14T09:39:44.068Z,25.97
2018-09-14T09:42:12.293Z,26.53
2018-09-14T09:44:40.502Z,30.07
2018-09-14T09:47:08.682Z,23.93
2018-09-14T09:49:36.877Z,23.50
2018-09-14T09:52:05.078Z,26.13
2018-09-14T09:54:33.716Z,29.97
2018-09-14T09:57:02.126Z,27.03
2018-09-14T09:59:30.371Z,23.63
2018-09-14T10:02:03.949Z,23.70
2018-09-14T10:05:36.143Z,22.37
2018-09-14T10:08:04.397Z,19.83
2018-09-14T10:10:32.602Z,24.93
2018-09-14T10:13:00.754Z,18.60
2018-09-14T10:15:28.910Z,23.63
2018-09-14T10:17:57.072Z,25.60
2018-09-14T10:20:25.352Z,24.60
2018-09-14T10:22:53.478Z,23.63
2018-09-14T10:25:21.650Z,25.00
2018-09-14T10:27:49.877Z,47.57
2018-09-14T10:30:17.977Z,22.87
2018-09-14T10:32:46.121Z,19.20
2018-09-14T10:35:14.422Z,17.63
2018-09-14T10:37:42.526Z,15.90
2018-09-14T10:40:10.760Z,20.43
2018-09-14T10:42:38.868Z,19.83
2018-09-14T10:45:07.104Z,20.30
2018-09-14T10:47:35.410Z,20.20
2018-09-14T10:50:03.590Z,22.70
2018-09-14T10:52:31.867Z,19.07
2018-09-14T10:55:00.057Z,17.70
2018-09-14T10:57:28.233Z,23.93
2018-09-14T10:59:56.388Z,19.13
2018-09-14T11:02:24.549Z,19.70
2018-09-14T11:04:52.723Z,19.83
2018-09-14T11:07:21.022Z,16.30
2018-09-14T11:09:49.353Z,18.23
2018-09-14T11:12:17.727Z,17.73
2018-09-14T11:14:45.892Z,64.57
2018-09-14T11:17:14.049Z,18.63
2018-09-14T11:19:42.227Z,20.63
2018-09-14T11:22:10.375Z,17.33
2018-09-14T11:24:38.569Z,13.57
2018-09-14T11:27:06.710Z,17.50
2018-09-14T11:29:34.867Z,47.47
2018-09-14T11:32:03.025Z,22.00
2018-09-14T11:34:31.204Z,13.37
2018-09-14T11:36:59.361Z,15.53
2018-09-14T11:39:27.508Z,15.63
2018-09-14T11:41:55.682Z,15.53
2018-09-14T11:44:23.860Z,20.70
2018-09-14T11:46:52.026Z,19.50
2018-09-14T11:49:20.250Z,18.73
2018-09-14T11:51:48.405Z,16.23
2018-09-14T11:54:16.627Z,18.60
2018-09-14T11:56:44.775Z,16.53
2018-09-14T11:59:12.924Z,16.70
2018-09-14T12:01:41.102Z,18.30
2018-09-14T12:04:09.259Z,18.33
2018-09-14T12:06:37.449Z,16.67
2018-09-14T12:09:07.745Z,13.73
2018-09-14T12:11:35.910Z,18.27
2018-09-14T12:14:04.059Z,19.37
2018-09-14T12:16:32.245Z,18.90
2018-09-14T12:19:00.442Z,20.90
2018-09-14T12:21:28.603Z,19.10
2018-09-14T12:23:56.749Z,24.63
2018-09-14T12:26:25.020Z,14.87
2018-09-14T12:28:53.164Z,16.03
2018-09-14T12:31:21.341Z,15.87
2018-09-14T12:33:49.532Z,16.33
2018-09-14T12:36:17.685Z,91.97
2018-09-14T12:38:45.853Z,22.63
2018-09-14T12:41:14.017Z,18.60
2018-09-14T12:43:42.205Z,16.23
2018-09-14T12:46:10.353Z,16.53
2018-09-14T12:48:38.534Z,17.87
2018-09-14T12:51:06.802Z,17.13
2018-09-14T12:53:34.979Z,16.30
2018-09-14T12:56:03.211Z,14.27
2018-09-14T12:58:31.374Z,12.93
2018-09-14T13:00:59.529Z,12.13
2018-09-14T13:03:27.677Z,13.37
2018-09-14T13:05:55.849Z,13.95
2018-09-14T13:08:24.001Z,13.40
2018-09-14T13:10:52.154Z,12.60
2018-09-14T13:13:20.341Z,13.30
2018-09-14T13:15:48.489Z,15.60
2018-09-14T13:18:16.661Z,13.93
2018-09-14T13:20:44.830Z,11.10
2018-09-14T13:23:12.969Z,12.27
2018-09-14T13:25:41.201Z,11.97
2018-09-14T13:28:09.375Z,9.83
2018-09-14T13:30:37.650Z,12.80
2018-09-14T13:33:05.785Z,13.43
2018-09-14T13:35:33.965Z,12.23
2018-09-14T13:38:02.112Z,14.73
2018-09-14T13:40:30.270Z,9.70
2018-09-14T13:42:58.426Z,9.47
2018-09-14T13:45:26.578Z,10.00
2018-09-14T13:47:54.746Z,8.87
2018-09-14T13:50:22.886Z,11.05
2018-09-14T13:52:51.159Z,8.83
2018-09-14T13:55:19.261Z,8.33
2018-09-14T13:57:47.406Z,12.03
2018-09-14T14:00:15.565Z,9.73
2018-09-14T14:02:43.701Z,9.50
2018-09-14T14:05:11.865Z,8.97
2018-09-14T14:07:40.012Z,11.33
2018-09-14T14:10:08.222Z,9.07
2018-09-14T14:12:36.333Z,8.35
2018-09-14T14:15:04.816Z,9.60
2018-09-14T14:17:33.011Z,9.43
2018-09-14T14:20:01.145Z,7.73
2018-09-14T14:22:29.309Z,11.23
2018-09-14T14:24:57.454Z,13.00
2018-09-14T14:27:25.618Z,13.08
2018-09-14T14:29:53.762Z,12.80
2018-09-14T14:32:21.937Z,11.22
2018-09-14T14:34:50.093Z,12.47
2018-09-14T14:37:18.305Z,11.80
2018-09-14T14:39:46.473Z,10.08
2018-09-14T14:42:14.645Z,13.00
2018-09-14T14:44:42.824Z,14.50
2018-09-14T14:47:11.028Z,14.10
2018-09-14T14:49:39.218Z,13.13
2018-09-14T14:52:07.698Z,11.25
2018-09-14T14:54:35.856Z,13.55
2018-09-14T14:57:04.018Z,10.82
2018-09-14T14:59:32.172Z,14.18
2018-09-14T15:02:00.363Z,13.88
2018-09-14T15:04:29.560Z,15.25
2018-09-14T15:06:57.709Z,10.20
2018-09-14T15:09:25.876Z,11.35
2018-09-14T15:11:54.061Z,12.75
2018-09-14T15:14:22.200Z,10.95
2018-09-14T15:16:50.328Z,12.23
2018-09-14T15:19:18.660Z,10.53
2018-09-14T15:21:46.785Z,11.90
2018-09-14T15:24:15.030Z,10.88
2018-09-14T15:26:43.280Z,10.85
2018-09-14T15:29:11.437Z,12.23
2018-09-14T15:31:39.603Z,12.95
2018-09-14T15:34:07.773Z,10.98
2018-09-14T15:36:35.928Z,14.45
2018-09-14T15:39:07.002Z,24.77
2018-09-14T15:41:35.202Z,16.77
2018-09-14T15:44:03.449Z,13.03
2018-09-14T15:46:31.773Z,14.40
2018-09-14T15:48:59.986Z,12.45
2018-09-14T15:51:28.120Z,12.07
2018-09-14T15:53:56.491Z,10.68
2018-09-14T15:56:24.648Z,82.02
2018-09-14T15:58:52.793Z,28.23
2018-09-14T16:01:20.997Z,14.93
2018-09-14T16:03:49.198Z,11.55
2018-09-14T16:06:18.940Z,10.38
2018-09-14T16:08:47.081Z,8.73
2018-09-14T16:11:15.346Z,12.85
2018-09-14T16:13:43.531Z,14.23
2018-09-14T16:16:11.654Z,12.20
2018-09-14T16:18:39.800Z,14.53
2018-09-14T16:21:07.952Z,13.50
2018-09-14T16:23:36.148Z,12.93
2018-09-14T16:26:04.303Z,12.40
2018-09-14T16:28:32.481Z,12.85
2018-09-14T16:31:00.629Z,10.95
2018-09-14T16:33:29.994Z,12.15
2018-09-14T16:35:58.340Z,11.90
2018-09-14T16:38:26.494Z,12.82
2018-09-14T16:40:54.702Z,15.00
2018-09-14T16:43:22.866Z,33.92
2018-09-14T16:45:51.205Z,27.13
2018-09-14T16:48:19.477Z,26.10
2018-09-14T16:50:47.688Z,19.13
2018-09-14T16:53:15.864Z,14.75
2018-09-14T16:55:44.060Z,18.33
2018-09-14T16:58:12.201Z,18.00
2018-09-14T17:00:40.351Z,20.90
2018-09-14T17:03:09.077Z,19.57
2018-09-14T17:05:37.241Z,25.27
2018-09-14T17:08:05.616Z,15.48
2018-09-14T17:10:33.761Z,14.47
2018-09-14T17:13:01.921Z,17.70
2018-09-14T17:15:30.203Z,14.70
2018-09-14T17:17:58.574Z,16.05
2018-09-14T17:20:26.765Z,17.93
2018-09-14T17:22:54.965Z,14.40
2018-09-14T17:25:23.160Z,19.93
2018-09-14T17:27:51.429Z,13.63
2018-09-14T17:30:19.589Z,14.15
2018-09-14T17:32:47.771Z,15.65
2018-09-14T17:35:15.960Z,14.50
2018-09-14T17:37:44.148Z,14.30
2018-09-14T17:40:12.301Z,15.73
2018-09-14T17:42:40.473Z,12.03
2018-09-14T17:45:08.664Z,14.07
2018-09-14T17:47:37.069Z,12.90
2018-09-14T17:50:06.263Z,14.77
2018-09-14T17:52:34.436Z,11.83
2018-09-14T17:55:02.694Z,16.77
2018-09-14T17:57:30.954Z,16.23
2018-09-14T17:59:59.073Z,13.40
2018-09-14T18:02:27.249Z,15.33
2018-09-14T18:04:55.419Z,14.80
2018-09-14T18:07:23.653Z,16.33
2018-09-14T18:09:51.997Z,19.73
2018-09-14T18:12:20.208Z,15.43
2018-09-14T18:14:48.445Z,15.90
2018-09-14T18:17:16.666Z,15.90
2018-09-14T18:19:44.942Z,16.90
2018-09-14T18:22:13.172Z,14.80
2018-09-14T18:24:41.306Z,17.27
2018-09-14T18:27:09.482Z,21.03
2018-09-14T18:29:37.692Z,17.70
2018-09-14T18:32:05.897Z,18.10
2018-09-14T18:34:34.053Z,18.03
2018-09-14T18:37:02.308Z,16.80
2018-09-14T18:39:30.469Z,20.80
2018-09-14T18:41:58.652Z,22.13
2018-09-14T18:44:27.134Z,19.13
2018-09-14T18:46:55.355Z,20.10
2018-09-14T18:49:23.477Z,21.63
2018-09-14T18:51:51.801Z,18.80
2018-09-14T18:54:20.036Z,22.40
2018-09-14T18:56:48.186Z,19.73
2018-09-14T18:59:16.384Z,22.73
2018-09-14T19:01:44.530Z,18.77
2018-09-14T19:04:12.733Z,24.13
2018-09-14T19:06:40.929Z,20.57
2018-09-14T19:09:10.467Z,22.40
2018-09-14T19:11:38.780Z,21.90
2018-09-14T19:14:07.030Z,22.50
2018-09-14T19:16:35.625Z,23.73
2018-09-14T19:19:03.875Z,25.63
2018-09-14T19:21:32.149Z,24.97
2018-09-14T19:24:00.329Z,24.70
2018-09-14T19:26:28.536Z,24.60
2018-09-14T19:28:56.725Z,25.63
2018-09-14T19:31:24.923Z,22.43
2018-09-14T19:33:53.069Z,21.83
2018-09-14T19:36:21.248Z,28.57
2018-09-14T19:38:49.401Z,22.10
2018-09-14T19:41:17.555Z,25.57
2018-09-14T19:43:45.747Z,23.33
2018-09-14T19:46:13.942Z,21.30
2018-09-14T19:48:42.136Z,21.07
2018-09-14T19:51:10.293Z,19.30
2018-09-14T19:53:38.453Z,20.93
2018-09-14T19:56:06.753Z,21.47
2018-09-14T19:58:34.990Z,21.77
2018-09-14T20:01:03.232Z,21.90
2018-09-14T20:03:31.401Z,22.03
2018-09-14T20:05:59.613Z,24.50
2018-09-14T20:08:27.854Z,21.43
2018-09-14T20:10:56.081Z,22.00
2018-09-14T20:13:24.235Z,23.60
2018-09-14T20:15:52.465Z,27.27
2018-09-14T20:18:20.639Z,25.70
2018-09-14T20:20:48.801Z,24.73
2018-09-14T20:23:17.292Z,22.80
2018-09-14T20:25:45.478Z,24.37
2018-09-14T20:28:13.739Z,27.07
2018-09-14T20:30:41.932Z,27.90
2018-09-14T20:33:10.103Z,25.70
2018-09-14T20:35:38.270Z,26.20
2018-09-14T20:38:06.530Z,24.97
2018-09-14T20:40:34.686Z,23.33
2018-09-14T20:43:02.849Z,25.03
2018-09-14T20:45:31.161Z,26.53
2018-09-14T20:47:59.333Z,25.90
2018-09-14T20:50:27.488Z,29.40
2018-09-14T20:52:55.717Z,28.97
2018-09-14T20:55:23.908Z,29.53
2018-09-14T20:57:52.066Z,31.03
2018-09-14T23:26:28.989Z,19.43
2018-09-14T23:28:57.145Z,18.10
2018-09-14T23:31:25.301Z,15.77
2018-09-14T23:33:53.553Z,17.53
2018-09-14T23:36:21.708Z,20.50
2018-09-14T23:38:49.884Z,19.43
2018-09-14T23:41:18.042Z,17.93
2018-09-14T23:43:46.197Z,20.73
2018-09-14T23:46:14.345Z,19.50
2018-09-14T23:48:42.497Z,19.37
2018-09-14T23:51:10.677Z,17.17
2018-09-14T23:53:38.822Z,17.70
2018-09-14T23:56:07.097Z,20.40
2018-09-14T23:58:35.257Z,19.47
